sensor_id;sensor_type;location;lat;lon;timestamp;P1;durP1;ratioP1;P2;durP2;ratioP2
56477;SDS011;42382;53.210;5.772;2023-05-10T00:01:24;5.95;;;5.35;;
56477;SDS011;42382;53.210;5.772;2023-05-10T00:03:50;5.72;;;5.25;;
56477;SDS011;42382;53.210;5.772;2023-05-10T00:06:16;5.70;;;5.30;;
56477;SDS011;42382;53.210;5.772;2023-05-10T00:08:41;8.52;;;7.63;;
56477;SDS011;42382;53.210;5.772;2023-05-10T00:11:07;6.72;;;6.22;;
56477;SDS011;42382;53.210;5.772;2023-05-10T00:13:33;7.65;;;6.95;;
56477;SDS011;42382;53.210;5.772;2023-05-10T00:15:58;7.15;;;6.55;;
56477;SDS011;42382;53.210;5.772;2023-05-10T00:18:27;6.28;;;5.75;;
56477;SDS011;42382;53.210;5.772;2023-05-10T00:20:53;5.55;;;5.15;;
56477;SDS011;42382;53.210;5.772;2023-05-10T00:23:18;6.18;;;5.15;;
56477;SDS011;42382;53.210;5.772;2023-05-10T00:25:44;5.50;;;5.00;;
56477;SDS011;42382;53.210;5.772;2023-05-10T00:28:10;5.32;;;4.82;;
56477;SDS011;42382;53.210;5.772;2023-05-10T00:30:35;4.93;;;4.53;;
56477;SDS011;42382;53.210;5.772;2023-05-10T00:33:01;4.68;;;4.28;;
56477;SDS011;42382;53.210;5.772;2023-05-10T00:35:27;4.80;;;4.40;;
56477;SDS011;42382;53.210;5.772;2023-05-10T00:37:53;5.15;;;4.68;;
56477;SDS011;42382;53.210;5.772;2023-05-10T00:40:18;4.70;;;4.15;;
56477;SDS011;42382;53.210;5.772;2023-05-10T00:42:44;4.63;;;4.22;;
56477;SDS011;42382;53.210;5.772;2023-05-10T00:45:10;5.88;;;5.00;;
56477;SDS011;42382;53.210;5.772;2023-05-10T00:47:36;12.27;;;8.75;;
56477;SDS011;42382;53.210;5.772;2023-05-10T00:50:02;19.08;;;11.07;;
56477;SDS011;42382;53.210;5.772;2023-05-10T00:52:29;22.98;;;12.75;;
56477;SDS011;42382;53.210;5.772;2023-05-10T00:54:55;25.00;;;13.25;;
56477;SDS011;42382;53.210;5.772;2023-05-10T00:57:23;26.45;;;13.90;;
56477;SDS011;42382;53.210;5.772;2023-05-10T00:59:49;24.55;;;15.32;;
56477;SDS011;42382;53.210;5.772;2023-05-10T01:02:15;26.58;;;16.25;;
56477;SDS011;42382;53.210;5.772;2023-05-10T01:04:40;40.47;;;15.07;;
56477;SDS011;42382;53.210;5.772;2023-05-10T01:07:07;41.33;;;16.17;;
56477;SDS011;42382;53.210;5.772;2023-05-10T01:09:33;39.05;;;16.38;;
56477;SDS011;42382;53.210;5.772;2023-05-10T01:12:01;39.47;;;16.73;;
56477;SDS011;42382;53.210;5.772;2023-05-10T01:14:28;36.08;;;13.27;;
56477;SDS011;42382;53.210;5.772;2023-05-10T01:16:54;36.95;;;15.18;;
56477;SDS011;42382;53.210;5.772;2023-05-10T01:33:25;45.92;;;15.88;;
56477;SDS011;42382;53.210;5.772;2023-05-10T01:36:03;43.97;;;16.90;;
56477;SDS011;42382;53.210;5.772;2023-05-10T01:42:14;34.30;;;17.15;;
56477;SDS011;42382;53.210;5.772;2023-05-10T01:45:02;25.40;;;15.80;;
56477;SDS011;42382;53.210;5.772;2023-05-10T01:47:43;23.58;;;15.82;;
56477;SDS011;42382;53.210;5.772;2023-05-10T01:50:15;20.08;;;16.35;;
56477;SDS011;42382;53.210;5.772;2023-05-10T01:52:44;23.65;;;17.05;;
56477;SDS011;42382;53.210;5.772;2023-05-10T01:55:16;25.05;;;16.75;;
56477;SDS011;42382;53.210;5.772;2023-05-10T01:57:45;22.73;;;15.05;;
56477;SDS011;42382;53.210;5.772;2023-05-10T02:00:13;14.10;;;11.73;;
56477;SDS011;42382;53.210;5.772;2023-05-10T02:02:40;10.30;;;9.30;;
56477;SDS011;42382;53.210;5.772;2023-05-10T02:05:10;10.23;;;8.95;;
56477;SDS011;42382;53.210;5.772;2023-05-10T02:07:38;10.68;;;9.15;;
56477;SDS011;42382;53.210;5.772;2023-05-10T02:10:04;9.05;;;8.15;;
56477;SDS011;42382;53.210;5.772;2023-05-10T02:12:35;8.30;;;7.47;;
56477;SDS011;42382;53.210;5.772;2023-05-10T02:15:04;7.72;;;6.88;;
56477;SDS011;42382;53.210;5.772;2023-05-10T02:17:32;9.00;;;8.07;;
56477;SDS011;42382;53.210;5.772;2023-05-10T02:19:59;6.70;;;5.97;;
56477;SDS011;42382;53.210;5.772;2023-05-10T02:22:28;5.78;;;5.28;;
56477;SDS011;42382;53.210;5.772;2023-05-10T02:24:58;3.95;;;3.30;;
56477;SDS011;42382;53.210;5.772;2023-05-10T02:27:25;2.60;;;2.17;;
56477;SDS011;42382;53.210;5.772;2023-05-10T02:29:54;1.40;;;1.30;;
56477;SDS011;42382;53.210;5.772;2023-05-10T02:32:20;0.90;;;0.90;;
56477;SDS011;42382;53.210;5.772;2023-05-10T02:34:47;0.82;;;0.80;;
56477;SDS011;42382;53.210;5.772;2023-05-10T02:37:16;0.70;;;0.60;;
56477;SDS011;42382;53.210;5.772;2023-05-10T02:39:46;1.92;;;0.70;;
56477;SDS011;42382;53.210;5.772;2023-05-10T02:42:14;0.50;;;0.38;;
56477;SDS011;42382;53.210;5.772;2023-05-10T02:44:42;0.43;;;0.30;;
56477;SDS011;42382;53.210;5.772;2023-05-10T02:47:10;0.73;;;0.30;;
56477;SDS011;42382;53.210;5.772;2023-05-10T02:49:36;0.77;;;0.30;;
56477;SDS011;42382;53.210;5.772;2023-05-10T02:52:03;0.50;;;0.30;;
56477;SDS011;42382;53.210;5.772;2023-05-10T02:54:33;0.50;;;0.30;;
56477;SDS011;42382;53.210;5.772;2023-05-10T02:57:04;0.73;;;0.40;;
56477;SDS011;42382;53.210;5.772;2023-05-10T02:59:32;1.52;;;0.32;;
56477;SDS011;42382;53.210;5.772;2023-05-10T03:01:59;0.50;;;0.40;;
56477;SDS011;42382;53.210;5.772;2023-05-10T03:04:25;0.50;;;0.30;;
56477;SDS011;42382;53.210;5.772;2023-05-10T03:06:51;0.40;;;0.30;;
56477;SDS011;42382;53.210;5.772;2023-05-10T03:09:17;0.30;;;0.30;;
56477;SDS011;42382;53.210;5.772;2023-05-10T03:11:50;0.47;;;0.35;;
56477;SDS011;42382;53.210;5.772;2023-05-10T03:17:47;0.50;;;0.40;;
56477;SDS011;42382;53.210;5.772;2023-05-10T03:20:24;0.47;;;0.40;;
56477;SDS011;42382;53.210;5.772;2023-05-10T03:23:00;1.77;;;0.50;;
56477;SDS011;42382;53.210;5.772;2023-05-10T03:25:36;0.95;;;0.75;;
56477;SDS011;42382;53.210;5.772;2023-05-10T03:28:03;0.50;;;0.50;;
56477;SDS011;42382;53.210;5.772;2023-05-10T03:30:30;7.30;;;0.98;;
56477;SDS011;42382;53.210;5.772;2023-05-10T03:32:56;1.95;;;0.80;;
56477;SDS011;42382;53.210;5.772;2023-05-10T03:35:22;1.33;;;1.20;;
56477;SDS011;42382;53.210;5.772;2023-05-10T03:37:49;1.25;;;1.15;;
56477;SDS011;42382;53.210;5.772;2023-05-10T03:40:14;1.20;;;1.10;;
56477;SDS011;42382;53.210;5.772;2023-05-10T03:42:40;1.25;;;1.17;;
56477;SDS011;42382;53.210;5.772;2023-05-10T03:45:06;0.75;;;0.75;;
56477;SDS011;42382;53.210;5.772;2023-05-10T03:47:32;0.85;;;0.65;;
56477;SDS011;42382;53.210;5.772;2023-05-10T03:49:58;0.90;;;0.60;;
56477;SDS011;42382;53.210;5.772;2023-05-10T03:52:26;0.38;;;0.30;;
56477;SDS011;42382;53.210;5.772;2023-05-10T03:54:52;0.40;;;0.30;;
56477;SDS011;42382;53.210;5.772;2023-05-10T03:57:19;0.45;;;0.40;;
56477;SDS011;42382;53.210;5.772;2023-05-10T03:59:44;0.40;;;0.30;;
56477;SDS011;42382;53.210;5.772;2023-05-10T04:02:10;0.40;;;0.30;;
56477;SDS011;42382;53.210;5.772;2023-05-10T04:04:35;0.73;;;0.40;;
56477;SDS011;42382;53.210;5.772;2023-05-10T04:07:01;0.70;;;0.40;;
56477;SDS011;42382;53.210;5.772;2023-05-10T04:09:27;0.50;;;0.43;;
56477;SDS011;42382;53.210;5.772;2023-05-10T04:11:53;0.63;;;0.40;;
56477;SDS011;42382;53.210;5.772;2023-05-10T04:14:19;0.95;;;0.57;;
56477;SDS011;42382;53.210;5.772;2023-05-10T04:16:46;0.80;;;0.80;;
56477;SDS011;42382;53.210;5.772;2023-05-10T04:19:11;0.60;;;0.60;;
56477;SDS011;42382;53.210;5.772;2023-05-10T04:21:37;1.52;;;1.42;;
56477;SDS011;42382;53.210;5.772;2023-05-10T04:24:02;1.63;;;1.52;;
56477;SDS011;42382;53.210;5.772;2023-05-10T04:26:28;1.40;;;1.30;;
56477;SDS011;42382;53.210;5.772;2023-05-10T04:28:56;1.77;;;1.67;;
56477;SDS011;42382;53.210;5.772;2023-05-10T04:31:21;1.58;;;1.48;;
56477;SDS011;42382;53.210;5.772;2023-05-10T04:33:47;2.20;;;2.03;;
56477;SDS011;42382;53.210;5.772;2023-05-10T04:36:13;3.97;;;1.88;;
56477;SDS011;42382;53.210;5.772;2023-05-10T04:38:38;2.58;;;1.90;;
56477;SDS011;42382;53.210;5.772;2023-05-10T04:41:05;2.58;;;2.38;;
56477;SDS011;42382;53.210;5.772;2023-05-10T04:43:35;3.50;;;3.20;;
56477;SDS011;42382;53.210;5.772;2023-05-10T04:46:01;4.43;;;3.60;;
56477;SDS011;42382;53.210;5.772;2023-05-10T04:48:27;5.85;;;5.20;;
56477;SDS011;42382;53.210;5.772;2023-05-10T04:50:53;7.28;;;5.65;;
56477;SDS011;42382;53.210;5.772;2023-05-10T04:53:18;5.93;;;5.32;;
56477;SDS011;42382;53.210;5.772;2023-05-10T04:55:44;8.85;;;7.60;;
56477;SDS011;42382;53.210;5.772;2023-05-10T04:58:10;6.45;;;5.90;;
56477;SDS011;42382;53.210;5.772;2023-05-10T05:00:36;7.07;;;6.45;;
56477;SDS011;42382;53.210;5.772;2023-05-10T05:03:02;7.28;;;6.22;;
56477;SDS011;42382;53.210;5.772;2023-05-10T05:05:28;7.30;;;6.60;;
56477;SDS011;42382;53.210;5.772;2023-05-10T05:07:53;9.60;;;6.93;;
56477;SDS011;42382;53.210;5.772;2023-05-10T05:10:19;6.68;;;5.25;;
56477;SDS011;42382;53.210;5.772;2023-05-10T05:12:44;6.18;;;5.60;;
56477;SDS011;42382;53.210;5.772;2023-05-10T05:15:10;7.72;;;5.15;;
56477;SDS011;42382;53.210;5.772;2023-05-10T05:17:36;4.72;;;4.30;;
56477;SDS011;42382;53.210;5.772;2023-05-10T05:20:02;5.70;;;4.32;;
56477;SDS011;42382;53.210;5.772;2023-05-10T05:22:28;4.70;;;4.25;;
56477;SDS011;42382;53.210;5.772;2023-05-10T05:24:54;6.47;;;4.50;;
56477;SDS011;42382;53.210;5.772;2023-05-10T05:27:20;4.47;;;4.07;;
56477;SDS011;42382;53.210;5.772;2023-05-10T05:29:49;6.85;;;3.72;;
56477;SDS011;42382;53.210;5.772;2023-05-10T05:32:17;3.90;;;3.60;;
56477;SDS011;42382;53.210;5.772;2023-05-10T05:34:46;4.20;;;3.65;;
56477;SDS011;42382;53.210;5.772;2023-05-10T05:37:12;4.63;;;2.65;;
56477;SDS011;42382;53.210;5.772;2023-05-10T05:39:39;5.38;;;3.13;;
56477;SDS011;42382;53.210;5.772;2023-05-10T05:42:05;2.65;;;2.45;;
56477;SDS011;42382;53.210;5.772;2023-05-10T05:44:30;2.60;;;2.35;;
56477;SDS011;42382;53.210;5.772;2023-05-10T05:46:56;2.55;;;2.20;;
56477;SDS011;42382;53.210;5.772;2023-05-10T05:49:21;2.55;;;1.90;;
56477;SDS011;42382;53.210;5.772;2023-05-10T05:51:47;4.85;;;2.53;;
56477;SDS011;42382;53.210;5.772;2023-05-10T05:54:14;2.55;;;1.50;;
56477;SDS011;42382;53.210;5.772;2023-05-10T05:56:40;1.88;;;1.02;;
56477;SDS011;42382;53.210;5.772;2023-05-10T05:59:08;2.10;;;0.60;;
56477;SDS011;42382;53.210;5.772;2023-05-10T06:01:37;0.90;;;0.70;;
56477;SDS011;42382;53.210;5.772;2023-05-10T06:04:03;1.00;;;0.80;;
56477;SDS011;42382;53.210;5.772;2023-05-10T06:06:28;1.33;;;0.50;;
56477;SDS011;42382;53.210;5.772;2023-05-10T06:08:54;0.60;;;0.50;;
56477;SDS011;42382;53.210;5.772;2023-05-10T06:11:20;0.98;;;0.70;;
56477;SDS011;42382;53.210;5.772;2023-05-10T06:13:48;1.90;;;0.70;;
56477;SDS011;42382;53.210;5.772;2023-05-10T06:16:14;2.33;;;1.23;;
56477;SDS011;42382;53.210;5.772;2023-05-10T06:18:40;1.20;;;1.10;;
56477;SDS011;42382;53.210;5.772;2023-05-10T06:21:06;1.55;;;1.45;;
56477;SDS011;42382;53.210;5.772;2023-05-10T06:23:34;2.33;;;1.38;;
56477;SDS011;42382;53.210;5.772;2023-05-10T06:26:00;1.98;;;1.30;;
56477;SDS011;42382;53.210;5.772;2023-05-10T06:28:26;1.98;;;1.55;;
56477;SDS011;42382;53.210;5.772;2023-05-10T06:30:51;2.65;;;1.92;;
56477;SDS011;42382;53.210;5.772;2023-05-10T06:33:17;3.13;;;1.58;;
56477;SDS011;42382;53.210;5.772;2023-05-10T06:35:43;3.08;;;2.10;;
56477;SDS011;42382;53.210;5.772;2023-05-10T06:38:08;2.80;;;1.73;;
56477;SDS011;42382;53.210;5.772;2023-05-10T06:40:34;3.55;;;1.70;;
56477;SDS011;42382;53.210;5.772;2023-05-10T06:43:00;2.72;;;2.03;;
56477;SDS011;42382;53.210;5.772;2023-05-10T06:45:26;2.67;;;1.83;;
56477;SDS011;42382;53.210;5.772;2023-05-10T06:47:52;2.42;;;1.60;;
56477;SDS011;42382;53.210;5.772;2023-05-10T06:50:17;4.70;;;2.17;;
56477;SDS011;42382;53.210;5.772;2023-05-10T06:52:43;3.03;;;2.40;;
56477;SDS011;42382;53.210;5.772;2023-05-10T06:55:09;9.07;;;5.22;;
56477;SDS011;42382;53.210;5.772;2023-05-10T06:57:34;6.85;;;4.03;;
56477;SDS011;42382;53.210;5.772;2023-05-10T07:00:00;5.65;;;3.83;;
56477;SDS011;42382;53.210;5.772;2023-05-10T07:02:29;11.32;;;4.32;;
56477;SDS011;42382;53.210;5.772;2023-05-10T07:04:55;10.35;;;4.10;;
56477;SDS011;42382;53.210;5.772;2023-05-10T07:07:21;6.55;;;4.03;;
56477;SDS011;42382;53.210;5.772;2023-05-10T07:09:47;6.75;;;4.32;;
56477;SDS011;42382;53.210;5.772;2023-05-10T07:12:12;5.10;;;4.00;;
56477;SDS011;42382;53.210;5.772;2023-05-10T07:14:38;6.18;;;3.97;;
56477;SDS011;42382;53.210;5.772;2023-05-10T07:17:03;6.25;;;4.03;;
56477;SDS011;42382;53.210;5.772;2023-05-10T07:19:29;4.60;;;3.40;;
56477;SDS011;42382;53.210;5.772;2023-05-10T07:21:55;5.65;;;3.80;;
56477;SDS011;42382;53.210;5.772;2023-05-10T07:24:20;5.68;;;3.83;;
56477;SDS011;42382;53.210;5.772;2023-05-10T07:26:46;5.82;;;3.47;;
56477;SDS011;42382;53.210;5.772;2023-05-10T07:29:12;6.68;;;4.00;;
56477;SDS011;42382;53.210;5.772;2023-05-10T07:31:38;6.20;;;4.18;;
56477;SDS011;42382;53.210;5.772;2023-05-10T07:34:06;7.25;;;4.97;;
56477;SDS011;42382;53.210;5.772;2023-05-10T07:36:32;7.15;;;5.00;;
56477;SDS011;42382;53.210;5.772;2023-05-10T07:38:58;8.38;;;5.50;;
56477;SDS011;42382;53.210;5.772;2023-05-10T07:41:24;6.32;;;4.65;;
56477;SDS011;42382;53.210;5.772;2023-05-10T07:43:51;6.78;;;4.80;;
56477;SDS011;42382;53.210;5.772;2023-05-10T07:46:17;4.88;;;4.20;;
56477;SDS011;42382;53.210;5.772;2023-05-10T07:48:44;5.05;;;4.07;;
56477;SDS011;42382;53.210;5.772;2023-05-10T07:51:10;7.43;;;5.47;;
56477;SDS011;42382;53.210;5.772;2023-05-10T07:53:37;6.50;;;5.13;;
56477;SDS011;42382;53.210;5.772;2023-05-10T07:56:25;7.85;;;5.43;;
56477;SDS011;42382;53.210;5.772;2023-05-10T07:58:55;8.27;;;6.15;;
56477;SDS011;42382;53.210;5.772;2023-05-10T08:01:21;6.13;;;4.88;;
56477;SDS011;42382;53.210;5.772;2023-05-10T08:03:47;8.35;;;5.40;;
56477;SDS011;42382;53.210;5.772;2023-05-10T08:06:14;6.43;;;4.78;;
56477;SDS011;42382;53.210;5.772;2023-05-10T08:08:40;8.07;;;4.45;;
56477;SDS011;42382;53.210;5.772;2023-05-10T08:11:07;5.47;;;4.22;;
56477;SDS011;42382;53.210;5.772;2023-05-10T08:13:32;5.53;;;3.97;;
56477;SDS011;42382;53.210;5.772;2023-05-10T08:15:58;8.45;;;4.03;;
56477;SDS011;42382;53.210;5.772;2023-05-10T08:18:25;9.45;;;4.80;;
56477;SDS011;42382;53.210;5.772;2023-05-10T08:20:51;7.30;;;4.47;;
56477;SDS011;42382;53.210;5.772;2023-05-10T08:23:16;5.40;;;4.20;;
56477;SDS011;42382;53.210;5.772;2023-05-10T08:25:42;5.07;;;4.35;;
56477;SDS011;42382;53.210;5.772;2023-05-10T08:28:07;5.25;;;4.40;;
56477;SDS011;42382;53.210;5.772;2023-05-10T08:30:33;6.53;;;4.97;;
56477;SDS011;42382;53.210;5.772;2023-05-10T08:32:59;8.45;;;5.47;;
56477;SDS011;42382;53.210;5.772;2023-05-10T08:35:24;8.18;;;5.60;;
56477;SDS011;42382;53.210;5.772;2023-05-10T08:37:50;9.02;;;6.28;;
56477;SDS011;42382;53.210;5.772;2023-05-10T08:40:16;8.98;;;6.35;;
56477;SDS011;42382;53.210;5.772;2023-05-10T08:42:48;9.07;;;6.75;;
56477;SDS011;42382;53.210;5.772;2023-05-10T08:45:21;9.75;;;6.35;;
56477;SDS011;42382;53.210;5.772;2023-05-10T08:47:49;9.65;;;6.43;;
56477;SDS011;42382;53.210;5.772;2023-05-10T08:50:16;10.30;;;7.53;;
56477;SDS011;42382;53.210;5.772;2023-05-10T08:52:45;15.20;;;7.90;;
56477;SDS011;42382;53.210;5.772;2023-05-10T08:55:13;11.93;;;8.13;;
56477;SDS011;42382;53.210;5.772;2023-05-10T08:57:39;11.40;;;7.53;;
56477;SDS011;42382;53.210;5.772;2023-05-10T09:00:05;10.80;;;7.63;;
56477;SDS011;42382;53.210;5.772;2023-05-10T09:02:32;9.07;;;7.63;;
56477;SDS011;42382;53.210;5.772;2023-05-10T09:04:59;11.88;;;7.97;;
56477;SDS011;42382;53.210;5.772;2023-05-10T09:07:25;11.32;;;8.13;;
56477;SDS011;42382;53.210;5.772;2023-05-10T09:09:51;11.75;;;8.00;;
56477;SDS011;42382;53.210;5.772;2023-05-10T09:12:17;11.50;;;7.57;;
56477;SDS011;42382;53.210;5.772;2023-05-10T09:14:43;10.63;;;7.32;;
56477;SDS011;42382;53.210;5.772;2023-05-10T09:17:10;7.05;;;5.88;;
56477;SDS011;42382;53.210;5.772;2023-05-10T09:19:36;8.27;;;6.03;;
56477;SDS011;42382;53.210;5.772;2023-05-10T09:22:02;7.45;;;5.20;;
56477;SDS011;42382;53.210;5.772;2023-05-10T09:24:29;7.57;;;5.72;;
56477;SDS011;42382;53.210;5.772;2023-05-10T09:26:55;7.65;;;6.03;;
56477;SDS011;42382;53.210;5.772;2023-05-10T09:29:22;6.20;;;4.88;;
56477;SDS011;42382;53.210;5.772;2023-05-10T09:31:48;7.47;;;5.82;;
56477;SDS011;42382;53.210;5.772;2023-05-10T09:34:31;9.73;;;5.72;;
56477;SDS011;42382;53.210;5.772;2023-05-10T09:36:59;10.18;;;6.25;;
56477;SDS011;42382;53.210;5.772;2023-05-10T09:42:02;6.57;;;4.85;;
56477;SDS011;42382;53.210;5.772;2023-05-10T09:44:30;10.57;;;6.15;;
56477;SDS011;42382;53.210;5.772;2023-05-10T09:46:56;7.63;;;6.47;;
56477;SDS011;42382;53.210;5.772;2023-05-10T09:49:22;12.57;;;7.20;;
56477;SDS011;42382;53.210;5.772;2023-05-10T09:51:57;9.55;;;7.20;;
56477;SDS011;42382;53.210;5.772;2023-05-10T09:54:25;8.70;;;6.85;;
56477;SDS011;42382;53.210;5.772;2023-05-10T09:56:51;9.00;;;7.13;;
56477;SDS011;42382;53.210;5.772;2023-05-10T09:59:17;8.70;;;6.60;;
56477;SDS011;42382;53.210;5.772;2023-05-10T10:01:48;7.78;;;6.10;;
56477;SDS011;42382;53.210;5.772;2023-05-10T10:04:24;9.10;;;6.68;;
56477;SDS011;42382;53.210;5.772;2023-05-10T10:07:00;9.90;;;7.53;;
56477;SDS011;42382;53.210;5.772;2023-05-10T10:09:27;9.50;;;7.00;;
56477;SDS011;42382;53.210;5.772;2023-05-10T10:11:54;9.38;;;7.22;;
56477;SDS011;42382;53.210;5.772;2023-05-10T10:14:19;10.68;;;7.60;;
56477;SDS011;42382;53.210;5.772;2023-05-10T10:16:46;9.60;;;7.00;;
56477;SDS011;42382;53.210;5.772;2023-05-10T10:19:13;9.15;;;7.95;;
56477;SDS011;42382;53.210;5.772;2023-05-10T10:21:40;9.43;;;7.53;;
56477;SDS011;42382;53.210;5.772;2023-05-10T10:24:05;8.13;;;6.80;;
56477;SDS011;42382;53.210;5.772;2023-05-10T10:26:34;8.15;;;6.28;;
56477;SDS011;42382;53.210;5.772;2023-05-10T10:31:51;7.75;;;6.15;;
56477;SDS011;42382;53.210;5.772;2023-05-10T10:34:28;8.20;;;6.13;;
56477;SDS011;42382;53.210;5.772;2023-05-10T10:36:56;6.93;;;5.43;;
56477;SDS011;42382;53.210;5.772;2023-05-10T10:39:22;7.43;;;5.82;;
56477;SDS011;42382;53.210;5.772;2023-05-10T10:41:57;6.95;;;5.90;;
56477;SDS011;42382;53.210;5.772;2023-05-10T10:52:33;5.95;;;5.03;;
56477;SDS011;42382;53.210;5.772;2023-05-10T10:57:31;5.50;;;4.57;;
56477;SDS011;42382;53.210;5.772;2023-05-10T11:03:06;5.95;;;4.97;;
56477;SDS011;42382;53.210;5.772;2023-05-10T11:08:09;7.13;;;4.55;;
56477;SDS011;42382;53.210;5.772;2023-05-10T11:16:13;6.13;;;5.45;;
56477;SDS011;42382;53.210;5.772;2023-05-10T11:19:01;7.00;;;5.55;;
56477;SDS011;42382;53.210;5.772;2023-05-10T11:23:55;4.70;;;4.22;;
56477;SDS011;42382;53.210;5.772;2023-05-10T11:26:29;5.55;;;4.72;;
56477;SDS011;42382;53.210;5.772;2023-05-10T11:28:56;5.78;;;5.07;;
56477;SDS011;42382;53.210;5.772;2023-05-10T11:31:24;6.70;;;5.13;;
56477;SDS011;42382;53.210;5.772;2023-05-10T11:33:52;5.38;;;4.88;;
56477;SDS011;42382;53.210;5.772;2023-05-10T11:36:27;6.05;;;5.40;;
56477;SDS011;42382;53.210;5.772;2023-05-10T11:39:00;5.97;;;5.38;;
56477;SDS011;42382;53.210;5.772;2023-05-10T11:41:28;6.32;;;5.72;;
56477;SDS011;42382;53.210;5.772;2023-05-10T11:43:55;8.13;;;7.05;;
56477;SDS011;42382;53.210;5.772;2023-05-10T11:46:23;9.52;;;7.20;;
56477;SDS011;42382;53.210;5.772;2023-05-10T11:48:50;8.85;;;7.63;;
56477;SDS011;42382;53.210;5.772;2023-05-10T11:51:20;9.57;;;8.32;;
56477;SDS011;42382;53.210;5.772;2023-05-10T11:53:48;8.55;;;7.75;;
56477;SDS011;42382;53.210;5.772;2023-05-10T11:56:17;9.40;;;8.27;;
56477;SDS011;42382;53.210;5.772;2023-05-10T11:58:43;9.05;;;8.15;;
56477;SDS011;42382;53.210;5.772;2023-05-10T12:01:09;9.65;;;7.60;;
56477;SDS011;42382;53.210;5.772;2023-05-10T12:03:36;9.45;;;7.82;;
56477;SDS011;42382;53.210;5.772;2023-05-10T12:06:02;9.48;;;7.78;;
56477;SDS011;42382;53.210;5.772;2023-05-10T12:08:29;12.95;;;9.90;;
56477;SDS011;42382;53.210;5.772;2023-05-10T12:11:16;9.63;;;8.43;;
56477;SDS011;42382;53.210;5.772;2023-05-10T12:13:43;9.38;;;8.00;;
56477;SDS011;42382;53.210;5.772;2023-05-10T12:16:18;10.55;;;7.57;;
56477;SDS011;42382;53.210;5.772;2023-05-10T12:18:56;9.43;;;6.68;;
56477;SDS011;42382;53.210;5.772;2023-05-10T12:21:23;9.30;;;6.70;;
56477;SDS011;42382;53.210;5.772;2023-05-10T12:23:52;10.35;;;7.63;;
56477;SDS011;42382;53.210;5.772;2023-05-10T12:26:27;10.93;;;8.35;;
56477;SDS011;42382;53.210;5.772;2023-05-10T12:28:53;7.45;;;6.68;;
56477;SDS011;42382;53.210;5.772;2023-05-10T12:31:20;8.43;;;6.30;;
56477;SDS011;42382;53.210;5.772;2023-05-10T12:33:46;8.95;;;7.80;;
56477;SDS011;42382;53.210;5.772;2023-05-10T12:36:14;8.40;;;6.93;;
56477;SDS011;42382;53.210;5.772;2023-05-10T12:38:41;6.95;;;5.68;;
56477;SDS011;42382;53.210;5.772;2023-05-10T12:41:17;7.55;;;6.20;;
56477;SDS011;42382;53.210;5.772;2023-05-10T12:43:43;8.85;;;6.80;;
56477;SDS011;42382;53.210;5.772;2023-05-10T12:46:11;8.80;;;6.47;;
56477;SDS011;42382;53.210;5.772;2023-05-10T12:48:38;7.22;;;5.82;;
56477;SDS011;42382;53.210;5.772;2023-05-10T12:51:05;9.00;;;6.53;;
56477;SDS011;42382;53.210;5.772;2023-05-10T12:53:34;8.20;;;5.88;;
56477;SDS011;42382;53.210;5.772;2023-05-10T12:56:00;9.52;;;6.30;;
56477;SDS011;42382;53.210;5.772;2023-05-10T12:58:26;12.02;;;8.00;;
56477;SDS011;42382;53.210;5.772;2023-05-10T13:00:52;9.00;;;6.45;;
56477;SDS011;42382;53.210;5.772;2023-05-10T13:03:17;10.88;;;7.53;;
56477;SDS011;42382;53.210;5.772;2023-05-10T13:05:43;7.82;;;6.65;;
56477;SDS011;42382;53.210;5.772;2023-05-10T13:08:09;10.85;;;7.13;;
56477;SDS011;42382;53.210;5.772;2023-05-10T13:10:35;10.27;;;7.75;;
56477;SDS011;42382;53.210;5.772;2023-05-10T13:13:00;13.20;;;8.38;;
56477;SDS011;42382;53.210;5.772;2023-05-10T13:15:26;11.48;;;9.20;;
56477;SDS011;42382;53.210;5.772;2023-05-10T13:17:52;10.80;;;9.18;;
56477;SDS011;42382;53.210;5.772;2023-05-10T13:20:18;17.48;;;9.60;;
56477;SDS011;42382;53.210;5.772;2023-05-10T13:22:44;10.38;;;8.77;;
56477;SDS011;42382;53.210;5.772;2023-05-10T13:25:10;10.63;;;8.52;;
56477;SDS011;42382;53.210;5.772;2023-05-10T13:27:39;10.43;;;7.28;;
56477;SDS011;42382;53.210;5.772;2023-05-10T13:30:06;4.65;;;4.22;;
56477;SDS011;42382;53.210;5.772;2023-05-10T13:32:36;5.15;;;4.65;;
56477;SDS011;42382;53.210;5.772;2023-05-10T13:35:02;5.40;;;4.90;;
56477;SDS011;42382;53.210;5.772;2023-05-10T13:37:29;7.65;;;5.50;;
56477;SDS011;42382;53.210;5.772;2023-05-10T13:39:55;6.43;;;5.82;;
56477;SDS011;42382;53.210;5.772;2023-05-10T13:42:21;6.78;;;6.10;;
56477;SDS011;42382;53.210;5.772;2023-05-10T13:44:48;6.90;;;5.47;;
56477;SDS011;42382;53.210;5.772;2023-05-10T13:47:14;6.05;;;5.45;;
56477;SDS011;42382;53.210;5.772;2023-05-10T13:49:39;5.55;;;5.05;;
56477;SDS011;42382;53.210;5.772;2023-05-10T13:52:05;6.68;;;6.13;;
56477;SDS011;42382;53.210;5.772;2023-05-10T13:54:35;5.70;;;5.20;;
56477;SDS011;42382;53.210;5.772;2023-05-10T13:57:01;5.70;;;4.60;;
56477;SDS011;42382;53.210;5.772;2023-05-10T13:59:28;4.70;;;4.25;;
56477;SDS011;42382;53.210;5.772;2023-05-10T14:01:54;3.88;;;3.58;;
56477;SDS011;42382;53.210;5.772;2023-05-10T14:04:20;5.25;;;4.82;;
56477;SDS011;42382;53.210;5.772;2023-05-10T14:06:45;4.93;;;4.53;;
56477;SDS011;42382;53.210;5.772;2023-05-10T14:09:11;3.97;;;3.67;;
56477;SDS011;42382;53.210;5.772;2023-05-10T14:11:37;4.20;;;3.90;;
56477;SDS011;42382;53.210;5.772;2023-05-10T14:14:06;4.28;;;3.97;;
56477;SDS011;42382;53.210;5.772;2023-05-10T14:16:33;3.65;;;3.35;;
56477;SDS011;42382;53.210;5.772;2023-05-10T14:19:02;3.50;;;3.20;;
56477;SDS011;42382;53.210;5.772;2023-05-10T14:21:28;3.60;;;3.40;;
56477;SDS011;42382;53.210;5.772;2023-05-10T14:23:56;4.63;;;3.22;;
56477;SDS011;42382;53.210;5.772;2023-05-10T14:26:22;3.53;;;3.13;;
56477;SDS011;42382;53.210;5.772;2023-05-10T14:28:48;4.43;;;4.03;;
56477;SDS011;42382;53.210;5.772;2023-05-10T14:31:16;3.90;;;3.60;;
56477;SDS011;42382;53.210;5.772;2023-05-10T14:33:44;4.55;;;4.15;;
56477;SDS011;42382;53.210;5.772;2023-05-10T14:36:13;5.50;;;4.75;;
56477;SDS011;42382;53.210;5.772;2023-05-10T14:38:39;4.35;;;4.00;;
56477;SDS011;42382;53.210;5.772;2023-05-10T14:41:05;4.30;;;4.00;;
56477;SDS011;42382;53.210;5.772;2023-05-10T14:43:31;5.07;;;4.60;;
56477;SDS011;42382;53.210;5.772;2023-05-10T14:45:56;4.35;;;3.85;;
56477;SDS011;42382;53.210;5.772;2023-05-10T14:48:22;4.45;;;3.65;;
56477;SDS011;42382;53.210;5.772;2023-05-10T14:50:48;4.82;;;3.70;;
56477;SDS011;42382;53.210;5.772;2023-05-10T14:53:14;5.45;;;4.32;;
56477;SDS011;42382;53.210;5.772;2023-05-10T14:55:40;5.57;;;4.80;;
56477;SDS011;42382;53.210;5.772;2023-05-10T14:58:06;4.35;;;3.97;;
56477;SDS011;42382;53.210;5.772;2023-05-10T15:00:32;5.18;;;4.68;;
56477;SDS011;42382;53.210;5.772;2023-05-10T15:02:57;5.03;;;4.63;;
56477;SDS011;42382;53.210;5.772;2023-05-10T15:05:26;5.18;;;4.78;;
56477;SDS011;42382;53.210;5.772;2023-05-10T15:07:51;5.05;;;4.65;;
56477;SDS011;42382;53.210;5.772;2023-05-10T15:10:17;5.30;;;4.90;;
56477;SDS011;42382;53.210;5.772;2023-05-10T15:12:43;6.60;;;5.90;;
56477;SDS011;42382;53.210;5.772;2023-05-10T15:15:09;6.22;;;5.72;;
56477;SDS011;42382;53.210;5.772;2023-05-10T15:17:34;6.22;;;5.68;;
56477;SDS011;42382;53.210;5.772;2023-05-10T15:20:00;5.05;;;4.55;;
56477;SDS011;42382;53.210;5.772;2023-05-10T15:22:28;5.18;;;4.60;;
56477;SDS011;42382;53.210;5.772;2023-05-10T15:24:54;5.00;;;4.60;;
56477;SDS011;42382;53.210;5.772;2023-05-10T15:27:19;6.53;;;5.57;;
56477;SDS011;42382;53.210;5.772;2023-05-10T15:29:45;5.95;;;5.35;;
56477;SDS011;42382;53.210;5.772;2023-05-10T15:32:11;6.60;;;6.00;;
56477;SDS011;42382;53.210;5.772;2023-05-10T15:34:37;6.68;;;5.97;;
56477;SDS011;42382;53.210;5.772;2023-05-10T15:37:03;7.55;;;5.78;;